Time;durP1;ratioP1;P1;durP2;ratioP2;P2;SDS_P1;SDS_P2;PMS_P1;PMS_P2;Temp;Humidity;BMP_temperature;BMP_pressure;BME280_temperature;BME280_humidity;BME280_pressure;Samples;Min_cycle;Max_cycle;Signal;HPM_P1;HPM_P2
2022/01/11 00:02:21;;;;;;;31.45;15.85;;;;;;;11.05;71.18;100155.14;1686036;84;21131;-66
2022/01/11 00:04:47;;;;;;;26.40;15.10;;;;;;;11.29;69.45;100164.34;1686835;84;21449;-71
2022/01/11 00:07:18;;;;;;;24.60;13.62;;;;;;;11.32;68.02;100156.15;1687841;83;20984;-66
2022/01/11 00:09:45;;;;;;;22.62;11.40;;;;;;;11.26;67.72;100157.73;1686378;84;21844;-66
2022/01/11 00:12:12;;;;;;;24.90;12.35;;;;;;;11.11;67.98;100160.92;1670218;84;22451;-66
2022/01/11 00:14:43;;;;;;;26.70;13.10;;;;;;;11.27;67.45;100163.75;1711595;83;20951;-66
2022/01/11 00:17:09;;;;;;;25.23;12.35;;;;;;;11.26;67.28;100164.25;1710815;83;21082;-67
2022/01/11 00:19:36;;;;;;;32.03;14.40;;;;;;;11.71;64.58;100159.53;1711544;83;21080;-71
2022/01/11 00:22:07;;;;;;;24.12;11.40;;;;;;;11.07;67.81;100167.52;1710021;83;21857;-68
2022/01/11 00:24:36;;;;;;;32.05;15.75;;;;;;;10.92;71.25;100165.78;1711802;83;21030;-66
2022/01/11 00:27:06;;;;;;;30.45;14.18;;;;;;;11.29;69.25;100161.27;1709369;83;21078;-69
2022/01/11 00:29:39;;;;;;;25.85;12.90;;;;;;;11.25;68.87;100163.95;1696298;83;21066;-68
2022/01/11 00:32:12;;;;;;;23.87;12.15;;;;;;;11.43;68.03;100162.95;1679460;83;21315;-67
2022/01/11 00:34:47;;;;;;;21.17;11.78;;;;;;;11.53;67.30;100167.84;1707096;83;21816;-69
2022/01/11 00:37:07;;;;;;;25.62;13.48;;;;;;;11.64;65.70;100166.52;1702285;83;21057;-66
2022/01/11 00:39:34;;;;;;;24.30;12.10;;;;;;;12.09;62.96;100163.86;1707416;83;21011;-73
2022/01/11 00:42:03;;;;;;;22.62;12.25;;;;;;;11.87;62.19;100163.66;1701822;83;21078;-67
2022/01/11 00:44:30;;;;;;;23.92;12.75;;;;;;;11.67;63.01;100168.24;1707125;83;21047;-71
2022/01/11 00:46:57;;;;;;;23.85;13.18;;;;;;;11.51;65.85;100169.03;1704496;83;21127;-67
2022/01/11 00:49:24;;;;;;;26.33;13.18;;;;;;;11.76;64.35;100163.66;1707014;83;21007;-72
2022/01/11 00:51:53;;;;;;;26.40;12.45;;;;;;;11.83;63.18;100167.15;1705712;83;20998;-67
2022/01/11 00:54:20;;;;;;;23.87;13.45;;;;;;;11.88;62.20;100164.75;1706493;83;21064;-67
2022/01/11 00:56:46;;;;;;;27.40;14.85;;;;;;;12.08;60.41;100167.45;1706194;83;20937;-67
2022/01/11 00:59:13;;;;;;;21.40;12.33;;;;;;;11.88;61.59;100167.87;1704703;83;21144;-67
2022/01/11 01:01:40;;;;;;;22.40;12.68;;;;;;;11.84;62.57;100168.75;1706518;83;21050;-69
2022/01/11 01:04:08;;;;;;;23.87;13.75;;;;;;;11.64;63.26;100172.54;1701833;83;21475;-68
2022/01/11 01:06:37;;;;;;;22.55;13.05;;;;;;;11.66;63.03;100168.42;1697750;84;21718;-71
2022/01/11 01:09:06;;;;;;;21.52;13.58;;;;;;;11.93;61.94;100163.69;1687476;84;21212;-66
2022/01/11 01:11:37;;;;;;;20.97;11.57;;;;;;;12.11;61.34;100159.73;1696011;83;21086;-66
2022/01/11 01:14:03;;;;;;;24.27;13.80;;;;;;;12.75;58.21;100160.60;1699038;84;21073;-66
2022/01/11 01:16:32;;;;;;;24.05;12.70;;;;;;;12.59;57.88;100162.30;1701273;84;21137;-66
2022/01/11 01:19:01;;;;;;;20.23;11.50;;;;;;;12.49;57.96;100161.86;1698138;84;21069;-65
2022/01/11 01:21:27;;;;;;;21.27;13.48;;;;;;;12.66;57.95;100162.61;1702148;84;21125;-65
2022/01/11 01:23:54;;;;;;;21.25;13.15;;;;;;;12.69;57.27;100166.65;1698537;84;21057;-66
2022/01/11 01:26:21;;;;;;;20.35;12.20;;;;;;;12.76;56.59;100154.36;1701378;84;21086;-66
2022/01/11 01:28:50;;;;;;;21.77;12.15;;;;;;;12.72;56.17;100158.89;1699125;83;21525;-69
2022/01/11 01:31:16;;;;;;;18.57;11.25;;;;;;;12.73;55.76;100152.16;1701286;84;20959;-65
2022/01/11 01:33:45;;;;;;;20.60;12.70;;;;;;;12.72;55.55;100151.84;1699155;84;21027;-70
2022/01/11 01:36:14;;;;;;;20.32;12.53;;;;;;;12.82;54.96;100154.08;1730686;81;21169;-66
2022/01/11 01:38:41;;;;;;;20.50;12.63;;;;;;;12.85;54.73;100149.25;1752712;80;21037;-65
2022/01/11 01:41:16;;;;;;;18.35;11.03;;;;;;;12.87;54.59;100145.92;1751242;80;21452;-65
2022/01/11 01:43:42;;;;;;;20.12;11.80;;;;;;;13.03;53.88;100144.73;1751052;81;20970;-71
2022/01/11 01:46:11;;;;;;;20.27;11.70;;;;;;;12.98;53.82;100150.26;1752836;81;21096;-65
2022/01/11 01:48:38;;;;;;;23.38;13.28;;;;;;;12.93;53.88;100150.06;1751584;81;21126;-66
2022/01/11 01:51:07;;;;;;;18.48;11.45;;;;;;;12.82;54.28;100147.54;1748582;81;21108;-71
2022/01/11 01:53:35;;;;;;;18.87;10.55;;;;;;;13.01;53.25;100144.63;1753133;81;21068;-65
2022/01/11 01:56:03;;;;;;;18.70;10.82;;;;;;;13.12;52.88;100137.48;1750959;81;21065;-65
2022/01/11 01:58:32;;;;;;;20.60;13.03;;;;;;;13.13;53.01;100136.47;1752048;81;20977;-66
2022/01/11 02:01:04;;;;;;;19.67;11.83;;;;;;;13.21;52.73;100133.63;1750569;81;21108;-66
2022/01/11 02:03:41;;;;;;;18.90;10.43;;;;;;;13.22;52.21;100131.34;1751219;81;20962;-71
2022/01/11 02:06:09;;;;;;;15.70;9.50;;;;;;;13.32;51.77;100133.55;1735085;82;22210;-66
2022/01/11 02:08:36;;;;;;;19.42;11.85;;;;;;;13.01;52.23;100129.73;1737716;82;20979;-68
2022/01/11 02:15:06;;;;;;;20.68;11.35;;;;;;;11.74;54.39;100141.34;1734941;82;21174;-65
2022/01/11 02:17:33;;;;;;;18.48;10.15;;;;;;;12.65;54.82;100142.70;1735624;82;21248;-65
2022/01/11 02:20:00;;;;;;;22.50;11.93;;;;;;;12.33;55.10;100139.00;1737144;82;21083;-66
2022/01/11 02:22:27;;;;;;;21.23;10.98;;;;;;;12.76;54.24;100129.51;1736625;82;20916;-65
2022/01/11 02:24:54;;;;;;;21.10;11.22;;;;;;;13.31;52.49;100131.95;1736865;82;21002;-67
2022/01/11 02:27:21;;;;;;;18.17;10.78;;;;;;;13.46;51.68;100135.66;1714380;82;21172;-70
2022/01/11 02:29:48;;;;;;;20.00;11.20;;;;;;;13.45;51.43;100134.86;1736602;82;21013;-66
2022/01/11 02:32:15;;;;;;;20.80;11.85;;;;;;;13.15;51.96;100126.11;1738029;81;21579;-65
2022/01/11 02:34:42;;;;;;;19.12;10.88;;;;;;;12.82;52.59;100133.95;1737210;82;20896;-66
2022/01/11 02:37:10;;;;;;;20.37;11.70;;;;;;;12.96;52.85;100137.89;1737168;82;21041;-71
2022/01/11 02:39:38;;;;;;;18.27;10.35;;;;;;;12.88;53.04;100141.02;1736076;82;20967;-65
2022/01/11 02:42:10;;;;;;;17.85;11.10;;;;;;;12.80;53.24;100143.80;1735512;82;21004;-67
2022/01/11 02:44:41;;;;;;;20.62;11.30;;;;;;;12.70;53.53;100142.60;1737492;80;20904;-65
2022/01/11 02:47:09;;;;;;;17.45;10.20;;;;;;;12.67;53.47;100143.80;1737169;82;21477;-67
2022/01/11 02:49:37;;;;;;;20.15;10.72;;;;;;;12.66;53.46;100143.00;1737357;82;22442;-66
2022/01/11 02:52:11;;;;;;;19.30;9.88;;;;;;;12.63;53.57;100148.62;1715394;82;21151;-73
2022/01/11 02:54:40;;;;;;;18.92;11.12;;;;;;;12.89;52.92;100154.89;1714768;82;21039;-66
2022/01/11 02:57:08;;;;;;;21.05;12.05;;;;;;;12.89;52.40;100155.70;1736508;82;20884;-70
2022/01/11 02:59:35;;;;;;;16.80;10.18;;;;;;;13.15;51.86;100152.78;1738110;82;21324;-65
2022/01/11 03:02:01;;;;;;;17.02;10.35;;;;;;;13.05;52.06;100145.33;1736168;82;21578;-67
2022/01/11 03:04:33;;;;;;;19.42;11.33;;;;;;;12.97;52.12;100144.22;1714139;82;21060;-66
2022/01/11 03:07:00;;;;;;;19.77;11.48;;;;;;;12.84;52.10;100146.82;1737456;82;21529;-73
2022/01/11 03:09:35;;;;;;;22.67;12.23;;;;;;;13.02;52.24;100151.47;1714332;82;21037;-66
2022/01/11 03:11:57;;;;;;;19.35;10.75;;;;;;;12.80;52.35;100162.11;1717379;82;21058;-66
2022/01/11 03:14:24;;;;;;;20.12;11.55;;;;;;;12.33;53.55;100158.61;1737222;81;20983;-74
2022/01/11 03:16:51;;;;;;;20.05;11.12;;;;;;;12.65;53.09;100163.63;1736768;82;21085;-67
2022/01/11 03:19:18;;;;;;;18.60;10.95;;;;;;;12.83;52.77;100163.53;1736708;82;21119;-65
2022/01/11 03:21:45;;;;;;;21.87;11.65;;;;;;;13.19;51.96;100163.15;1737869;82;21117;-66
2022/01/11 03:24:12;;;;;;;19.60;11.10;;;;;;;13.41;51.25;100169.48;1716624;82;20956;-67
2022/01/11 03:26:40;;;;;;;22.25;10.90;;;;;;;13.39;50.87;100171.81;1737125;82;21560;-73
2022/01/11 03:29:06;;;;;;;18.60;10.28;;;;;;;13.61;50.26;100174.20;1735591;82;22400;-73
2022/01/11 03:31:36;;;;;;;18.20;11.18;;;;;;;13.60;50.04;100178.64;1737183;82;21238;-66
2022/01/11 03:34:03;;;;;;;18.73;10.30;;;;;;;13.67;49.87;100183.05;1737007;81;21503;-67
2022/01/11 03:36:31;;;;;;;20.23;11.33;;;;;;;13.63;49.89;100183.45;1738211;82;20923;-65
2022/01/11 03:38:58;;;;;;;25.23;12.55;;;;;;;13.52;49.89;100187.20;1737479;82;21481;-67
2022/01/11 03:41:25;;;;;;;24.98;12.33;;;;;;;13.33;50.34;100184.42;1736747;82;21562;-65
2022/01/11 03:43:52;;;;;;;23.42;12.58;;;;;;;13.44;49.98;100192.66;1736957;82;22330;-66
2022/01/11 03:46:20;;;;;;;20.60;10.82;;;;;;;13.79;49.46;100187.47;1737180;81;20982;-66
2022/01/11 03:48:47;;;;;;;20.05;10.43;;;;;;;13.90;49.06;100187.82;1735979;82;21539;-65
2022/01/11 03:51:15;;;;;;;20.10;11.85;;;;;;;13.93;48.71;100193.45;1736869;82;21018;-68
2022/01/11 03:54:00;;;;;;;22.80;10.75;;;;;;;13.86;49.16;100188.26;1737942;81;22552;-66
2022/01/11 03:56:25;;;;;;;21.48;11.08;;;;;;;13.77;49.17;100194.72;1719236;82;21062;-65
2022/01/11 03:58:54;;;;;;;25.72;13.43;;;;;;;13.82;49.32;100190.16;1735577;82;21042;-71
2022/01/11 04:01:21;;;;;;;25.72;14.45;;;;;;;13.94;48.75;100189.02;1678810;81;21461;-65
2022/01/11 04:03:48;;;;;;;22.93;12.93;;;;;;;13.62;49.27;100194.14;1648404;86;21066;-65
2022/01/11 04:06:16;;;;;;;20.68;12.63;;;;;;;13.83;48.88;100191.28;1648954;86;21154;-65
2022/01/11 04:08:45;;;;;;;23.27;13.83;;;;;;;13.90;48.76;100187.31;1648602;86;21003;-70
2022/01/11 04:11:12;;;;;;;22.17;12.95;;;;;;;13.84;48.77;100192.09;1591998;86;21032;-72
2022/01/11 04:13:40;;;;;;;27.13;14.05;;;;;;;13.87;48.75;100192.48;1619047;88;20984;-66
2022/01/11 04:16:07;;;;;;;24.55;15.05;;;;;;;13.66;49.26;100194.03;1594935;89;20949;-66
2022/01/11 04:18:33;;;;;;;24.65;12.88;;;;;;;14.03;48.73;100199.08;1618337;88;22264;-67
2022/01/11 04:21:00;;;;;;;27.17;14.40;;;;;;;14.18;48.33;100188.34;1596132;88;20977;-69
2022/01/11 04:23:27;;;;;;;23.60;12.95;;;;;;;14.12;48.39;100192.58;1616406;88;20995;-67
2022/01/11 04:25:53;;;;;;;21.45;13.22;;;;;;;13.97;48.86;100197.27;1592661;89;21088;-67
2022/01/11 04:28:23;;;;;;;23.02;12.70;;;;;;;14.00;48.73;100198.69;1617719;88;21088;-67
2022/01/11 04:30:52;;;;;;;22.93;13.83;;;;;;;14.31;48.36;100187.47;1592698;89;21986;-67
2022/01/11 04:33:20;;;;;;;20.92;13.13;;;;;;;14.50;47.75;100194.97;1617032;87;21036;-68
2022/01/11 04:35:49;;;;;;;22.77;13.43;;;;;;;14.33;47.97;100190.70;1593556;89;21354;-67
2022/01/11 04:38:18;;;;;;;19.42;11.57;;;;;;;14.04;48.66;100199.37;1639969;87;21030;-69
2022/01/11 04:40:45;;;;;;;23.25;13.25;;;;;;;14.16;48.47;100194.28;1622117;87;20989;-68
2022/01/11 04:43:12;;;;;;;23.10;13.55;;;;;;;14.34;48.16;100204.90;1607497;88;22385;-72
2022/01/11 04:45:39;;;;;;;21.02;12.55;;;;;;;14.10;48.41;100203.00;1617525;88;22321;-67
2022/01/11 04:48:06;;;;;;;21.73;12.23;;;;;;;14.29;48.30;100201.30;1618243;88;21040;-66
2022/01/11 04:50:33;;;;;;;20.05;12.25;;;;;;;14.37;47.90;100208.93;1617829;88;21634;-66
2022/01/11 04:53:00;;;;;;;16.15;10.03;;;;;;;14.14;48.13;100205.50;1617110;88;21135;-73
2022/01/11 04:55:26;;;;;;;19.87;13.03;;;;;;;13.94;48.71;100211.29;1616995;88;21118;-67
2022/01/11 04:57:53;;;;;;;16.60;11.05;;;;;;;13.55;49.18;100215.60;1617900;88;21108;-66
2022/01/11 05:00:22;;;;;;;20.75;11.88;;;;;;;13.71;49.32;100219.09;1618358;88;21012;-66
2022/01/11 05:02:48;;;;;;;20.32;12.58;;;;;;;13.56;49.78;100221.13;1647767;85;21134;-66
2022/01/11 05:05:15;;;;;;;18.48;11.03;;;;;;;13.73;49.51;100224.95;1648268;85;21016;-67
2022/01/11 05:07:44;;;;;;;17.67;10.55;;;;;;;13.71;49.37;100222.23;1648286;85;21155;-66
2022/01/11 05:10:11;;;;;;;17.52;10.48;;;;;;;13.88;49.35;100218.97;1632047;85;21569;-67
2022/01/11 05:12:39;;;;;;;17.15;10.23;;;;;;;13.57;49.55;100222.77;1640248;85;21059;-66
2022/01/11 05:15:09;;;;;;;17.37;11.20;;;;;;;13.76;49.46;100221.93;1652614;85;21158;-67
2022/01/11 05:17:37;;;;;;;20.55;12.80;;;;;;;13.86;49.22;100221.02;1647348;85;21080;-67
2022/01/11 05:20:05;;;;;;;19.40;11.12;;;;;;;13.61;50.10;100230.52;1648471;85;21138;-68
2022/01/11 05:22:34;;;;;;;17.25;10.88;;;;;;;13.81;50.00;100223.42;1648720;85;21645;-68
2022/01/11 05:25:01;;;;;;;16.57;10.50;;;;;;;13.89;49.76;100227.64;1643709;86;21549;-65
2022/01/11 05:27:28;;;;;;;17.05;10.10;;;;;;;13.65;49.83;100227.79;1628684;86;21092;-66
2022/01/11 05:29:55;;;;;;;18.07;11.33;;;;;;;14.05;49.32;100225.90;1646850;85;21074;-67
2022/01/11 05:32:21;;;;;;;18.98;11.20;;;;;;;14.23;48.60;100217.34;1651651;85;21160;-68
2022/01/11 05:34:48;;;;;;;17.30;10.90;;;;;;;14.35;48.32;100213.56;1627570;86;21449;-73
2022/01/11 05:37:14;;;;;;;17.15;11.20;;;;;;;14.45;48.24;100214.44;1630011;86;21111;-67
2022/01/11 05:39:41;;;;;;;20.62;10.75;;;;;;;14.48;48.25;100220.08;1647643;85;21319;-66
2022/01/11 05:42:08;;;;;;;18.85;11.65;;;;;;;14.41;48.23;100221.13;1633751;86;21132;-66
2022/01/11 05:44:36;;;;;;;20.27;11.40;;;;;;;14.22;48.35;100228.05;1648116;85;21171;-71
2022/01/11 05:47:03;;;;;;;17.92;11.43;;;;;;;14.44;48.29;100228.58;1632176;86;21034;-70
2022/01/11 05:49:30;;;;;;;16.20;9.43;;;;;;;14.08;48.82;100233.84;1630504;86;21098;-65
2022/01/11 05:51:57;;;;;;;16.45;10.13;;;;;;;14.19;48.59;100231.89;1627827;86;22034;-64
2022/01/11 05:54:23;;;;;;;15.72;9.48;;;;;;;14.23;48.61;100232.28;1630895;86;21091;-71
2022/01/11 05:56:50;;;;;;;13.90;9.23;;;;;;;13.79;49.42;100239.86;1628370;86;21175;-67
2022/01/11 05:59:17;;;;;;;15.00;8.95;;;;;;;13.75;49.68;100242.59;1646785;85;21097;-72
2022/01/11 06:01:44;;;;;;;13.78;8.93;;;;;;;13.97;49.40;100243.13;1609205;87;21086;-65
2022/01/11 06:04:10;;;;;;;13.75;8.93;;;;;;;14.08;49.08;100243.01;1632526;86;21096;-66
2022/01/11 06:06:39;;;;;;;13.35;8.55;;;;;;;14.32;48.46;100242.34;1626825;86;21255;-70
2022/01/11 06:09:06;;;;;;;13.50;8.25;;;;;;;14.51;47.96;100236.74;1632798;86;21156;-67
2022/01/11 06:11:32;;;;;;;13.55;8.63;;;;;;;14.70;47.53;100238.97;1633700;86;21554;-70
2022/01/11 06:13:59;;;;;;;15.13;9.58;;;;;;;14.94;46.90;100235.30;1631785;86;21068;-67
2022/01/11 06:16:27;;;;;;;18.90;9.35;;;;;;;15.36;46.10;100234.28;1633080;86;21163;-70
2022/01/11 06:18:54;;;;;;;14.53;9.68;;;;;;;14.76;46.80;100238.11;1629447;86;21511;-68
2022/01/11 06:21:25;;;;;;;13.57;8.70;;;;;;;13.38;49.28;100246.64;1628335;86;21150;-70
2022/01/11 06:23:52;;;;;;;14.47;9.50;;;;;;;13.01;50.63;100250.09;1609149;87;20978;-67
2022/01/11 06:26:19;;;;;;;12.63;8.28;;;;;;;13.16;50.91;100253.84;1633753;86;21033;-68
2022/01/11 06:28:46;;;;;;;14.45;8.18;;;;;;;12.87;51.21;100255.80;1646393;86;21536;-67
2022/01/11 06:31:13;;;;;;;15.20;8.58;;;;;;;13.05;50.62;100256.55;1638270;86;21109;-68
2022/01/11 06:33:40;;;;;;;12.10;8.13;;;;;;;13.54;50.19;100259.83;1647525;85;21156;-69
2022/01/11 06:36:10;;;;;;;14.75;9.50;;;;;;;13.65;49.60;100261.84;1644992;86;21363;-68
2022/01/11 06:38:41;;;;;;;15.98;9.83;;;;;;;13.96;49.01;100256.45;1657043;86;21003;-68
2022/01/11 06:41:09;;;;;;;15.25;9.38;;;;;;;14.12;48.46;100262.55;1657172;86;21501;-71
2022/01/11 06:43:37;;;;;;;15.32;8.93;;;;;;;13.99;48.47;100271.77;1657000;86;20931;-70
2022/01/11 06:46:05;;;;;;;14.18;9.15;;;;;;;12.83;50.70;100265.55;1653673;86;21162;-69
2022/01/11 06:48:34;;;;;;;16.77;9.50;;;;;;;13.44;50.71;100272.52;1655877;86;21038;-69
2022/01/11 06:51:01;;;;;;;18.02;9.48;;;;;;;13.28;50.23;100272.41;1659998;84;21015;-70
2022/01/11 06:53:32;;;;;;;16.75;9.58;;;;;;;13.04;50.85;100270.64;1660785;84;21525;-70
2022/01/11 06:55:59;;;;;;;15.65;10.55;;;;;;;12.84;51.25;100273.69;1667452;84;21130;-71
2022/01/11 06:58:27;;;;;;;14.60;8.38;;;;;;;12.84;51.83;100281.06;1657362;84;21183;-72
2022/01/11 07:00:54;;;;;;;17.48;10.60;;;;;;;12.89;52.22;100278.66;1660502;84;20982;-71
2022/01/11 07:03:21;;;;;;;15.08;9.33;;;;;;;12.89;52.11;100277.84;1634958;85;21505;-71
2022/01/11 07:05:48;;;;;;;14.55;9.43;;;;;;;12.94;51.94;100279.88;1645696;85;21073;-70
2022/01/11 07:08:15;;;;;;;15.58;9.95;;;;;;;12.62;52.87;100280.38;1655101;85;20989;-70
2022/01/11 07:10:43;;;;;;;14.33;8.35;;;;;;;13.25;51.35;100280.66;1648594;85;21042;-70
2022/01/11 07:13:11;;;;;;;15.40;8.83;;;;;;;13.95;49.85;100274.51;1682109;83;21059;-71
2022/01/11 07:15:38;;;;;;;16.45;10.38;;;;;;;14.53;48.23;100260.93;1682947;83;21072;-71
2022/01/11 07:18:09;;;;;;;22.85;15.72;;;;;;;14.50;47.67;100266.59;1680967;84;22438;-71
2022/01/11 07:20:37;;;;;;;25.75;16.23;;;;;;;14.66;47.41;100265.33;1684433;83;21098;-70
2022/01/11 07:23:04;;;;;;;18.25;11.70;;;;;;;14.76;47.17;100271.42;1658912;84;21172;-71
2022/01/11 07:25:33;;;;;;;18.42;11.22;;;;;;;14.80;46.86;100269.98;1679130;83;22549;-70
2022/01/11 07:28:03;;;;;;;19.12;11.65;;;;;;;14.64;46.97;100273.10;1677687;83;21039;-69
2022/01/11 07:30:30;;;;;;;22.52;13.08;;;;;;;14.50;47.03;100277.59;1679189;83;20979;-70
2022/01/11 07:32:57;;;;;;;21.62;11.53;;;;;;;14.55;46.86;100280.41;1682141;83;21060;-69
2022/01/11 07:35:24;;;;;;;20.35;12.78;;;;;;;14.43;46.94;100282.02;1683843;83;21127;-71
2022/01/11 07:37:52;;;;;;;21.90;14.60;;;;;;;14.41;46.54;100284.86;1665557;84;20949;-70
2022/01/11 07:40:19;;;;;;;25.72;16.77;;;;;;;14.55;46.43;100290.39;1682129;83;20999;-72
2022/01/11 07:42:46;;;;;;;17.40;11.97;;;;;;;14.79;45.87;100290.18;1678685;83;22162;-70
2022/01/11 07:45:15;;;;;;;19.87;13.20;;;;;;;14.69;45.58;100287.19;1679104;83;21008;-71
2022/01/11 07:47:41;;;;;;;18.92;12.82;;;;;;;14.58;45.58;100295.23;1680947;83;22352;-71
2022/01/11 07:50:10;;;;;;;18.07;13.32;;;;;;;14.79;45.42;100287.55;1648125;85;21376;-70
2022/01/11 07:52:37;;;;;;;19.05;12.45;;;;;;;14.58;45.56;100282.59;1654302;85;21194;-70
2022/01/11 07:55:07;;;;;;;19.48;12.40;;;;;;;14.42;45.56;100283.05;1653937;85;21028;-71
2022/01/11 07:57:35;;;;;;;19.87;13.65;;;;;;;14.40;45.76;100287.70;1628792;86;21051;-70
2022/01/11 08:00:05;;;;;;;25.80;14.87;;;;;;;14.35;45.91;100292.23;1651634;85;21155;-71
2022/01/11 08:02:35;;;;;;;21.48;13.48;;;;;;;14.53;45.46;100300.78;1653264;85;21465;-71
2022/01/11 08:05:04;;;;;;;18.77;12.25;;;;;;;14.26;45.87;100292.98;1651122;85;21021;-70
2022/01/11 08:07:31;;;;;;;24.10;16.05;;;;;;;14.06;46.33;100295.65;1647382;85;20959;-71
2022/01/11 08:09:59;;;;;;;28.62;16.25;;;;;;;13.90;46.56;100298.68;1644754;85;21093;-70
2022/01/11 08:12:26;;;;;;;19.42;12.55;;;;;;;14.10;46.04;100299.98;1647679;85;23012;-69
2022/01/11 08:14:53;;;;;;;19.17;13.38;;;;;;;14.42;45.35;100296.16;1651594;85;21127;-70
2022/01/11 08:17:21;;;;;;;18.50;12.20;;;;;;;14.57;45.09;100298.05;1651322;85;21097;-70
2022/01/11 08:19:48;;;;;;;18.35;12.13;;;;;;;14.53;44.88;100297.66;1652719;85;22601;-70
2022/01/11 08:22:16;;;;;;;17.12;12.13;;;;;;;14.44;44.98;100302.02;1649411;86;21545;-70
2022/01/11 08:24:44;;;;;;;21.93;12.75;;;;;;;14.44;44.81;100307.26;1645422;86;21164;-70
2022/01/11 08:27:13;;;;;;;17.92;12.30;;;;;;;14.44;44.59;100307.26;1640271;85;21062;-70
2022/01/11 08:29:42;;;;;;;21.40;13.70;;;;;;;14.25;44.76;100307.10;1648341;85;21528;-70
2022/01/11 08:32:10;;;;;;;22.48;14.78;;;;;;;14.12;45.24;100306.61;1632010;86;21013;-70
2022/01/11 08:34:36;;;;;;;17.42;11.57;;;;;;;14.16;45.38;100307.00;1649502;85;21078;-70
2022/01/11 08:37:04;;;;;;;15.40;10.43;;;;;;;13.99;45.15;100307.16;1647672;85;21155;-70
2022/01/11 08:39:32;;;;;;;14.65;9.20;;;;;;;13.81;45.44;100303.84;1630056;86;21094;-69
2022/01/11 08:41:59;;;;;;;18.67;11.75;;;;;;;14.15;44.59;100301.98;1629322;86;21054;-69
2022/01/11 08:44:27;;;;;;;16.90;10.90;;;;;;;13.87;44.88;100302.53;1655491;85;21082;-69
2022/01/11 08:46:55;;;;;;;14.05;9.73;;;;;;;14.09;44.61;100294.41;1654759;85;21561;-69
2022/01/11 08:49:23;;;;;;;16.15;9.90;;;;;;;14.22;44.21;100288.36;1621630;86;21136;-69
2022/01/11 08:51:55;;;;;;;19.48;12.98;;;;;;;14.30;44.03;100290.75;1644657;85;21564;-69
2022/01/11 08:54:24;;;;;;;16.70;11.68;;;;;;;14.40;43.99;100292.95;1617765;86;21630;-69
2022/01/11 08:56:55;;;;;;;20.25;12.37;;;;;;;14.67;43.65;100280.56;1647431;85;21068;-69
2022/01/11 08:59:23;;;;;;;16.75;11.57;;;;;;;14.60;43.85;100279.27;1647689;85;21083;-68
2022/01/11 09:01:50;;;;;;;15.40;10.05;;;;;;;14.55;43.68;100282.53;1652041;85;21157;-68
2022/01/11 09:04:19;;;;;;;17.32;11.28;;;;;;;14.53;44.03;100285.05;1658025;84;21029;-71
2022/01/11 09:06:53;;;;;;;20.02;14.07;;;;;;;14.66;44.02;100277.14;1651346;84;21519;-69
2022/01/11 09:09:19;;;;;;;15.10;10.78;;;;;;;14.72;43.77;100277.59;1654786;85;21034;-70
2022/01/11 09:11:46;;;;;;;18.00;12.88;;;;;;;14.81;43.64;100275.04;1654819;85;21145;-69
2022/01/11 09:14:13;;;;;;;14.43;10.75;;;;;;;14.84;43.35;100278.53;1656434;85;21552;-69
2022/01/11 09:16:40;;;;;;;18.25;11.85;;;;;;;14.52;43.52;100272.95;1652873;85;21076;-70
2022/01/11 09:19:11;;;;;;;14.83;10.08;;;;;;;14.77;43.32;100275.65;1653398;85;21097;-70
2022/01/11 09:21:38;;;;;;;13.45;8.68;;;;;;;14.93;42.54;100274.37;1656706;85;21015;-70
2022/01/11 09:24:06;;;;;;;13.48;9.60;;;;;;;14.56;42.80;100266.27;1653976;85;21024;-70
2022/01/11 09:26:33;;;;;;;16.07;11.05;;;;;;;14.66;42.69;100270.58;1676229;83;21149;-71
2022/01/11 09:29:01;;;;;;;13.45;9.40;;;;;;;14.66;42.63;100260.08;1652391;85;22436;-69
2022/01/11 09:31:29;;;;;;;11.12;7.78;;;;;;;14.35;42.90;100273.88;1651577;85;20996;-69
2022/01/11 09:33:59;;;;;;;13.43;9.53;;;;;;;14.42;42.59;100270.73;1651409;85;21067;-69
2022/01/11 09:36:28;;;;;;;18.82;11.20;;;;;;;14.46;42.56;100265.36;1646701;85;21074;-69
2022/01/11 09:38:54;;;;;;;18.32;10.32;;;;;;;14.53;42.58;100266.18;1650775;85;21167;-69
2022/01/11 09:41:24;;;;;;;15.08;9.50;;;;;;;14.50;42.53;100261.85;1644752;85;21477;-69
2022/01/11 09:43:50;;;;;;;14.45;10.20;;;;;;;14.80;42.34;100264.73;1646979;85;21137;-69
2022/01/11 09:46:19;;;;;;;15.80;10.28;;;;;;;14.62;42.36;100266.73;1651518;85;20910;-68
2022/01/11 09:48:48;;;;;;;19.92;11.50;;;;;;;14.74;42.37;100262.46;1645717;85;21069;-68
2022/01/11 09:51:16;;;;;;;17.20;12.10;;;;;;;14.98;41.75;100262.72;1654446;85;22108;-67
2022/01/11 09:53:43;;;;;;;24.32;15.15;;;;;;;15.03;41.55;100262.88;1650903;85;21541;-67
2022/01/11 09:56:11;;;;;;;19.62;13.85;;;;;;;14.40;41.53;100266.73;1639631;86;21100;-69
2022/01/11 09:58:41;;;;;;;16.60;11.65;;;;;;;14.67;41.82;100261.69;1636465;85;21637;-69
2022/01/11 10:01:26;;;;;;;16.10;10.95;;;;;;;14.64;41.70;100251.61;1686595;83;21011;-68
2022/01/11 10:04:13;;;;;;;17.05;12.00;;;;;;;14.62;41.63;100252.30;1684476;83;21146;-68
2022/01/11 10:06:42;;;;;;;17.90;11.30;;;;;;;14.89;41.59;100254.78;1658664;84;21494;-68
2022/01/11 10:09:16;;;;;;;16.20;11.18;;;;;;;13.66;43.11;100258.71;1688190;83;21056;-67
2022/01/11 10:11:47;;;;;;;15.65;10.30;;;;;;;14.27;42.15;100264.42;1687939;84;20952;-67
2022/01/11 10:14:31;;;;;;;17.95;11.45;;;;;;;14.23;41.94;100264.55;1674332;84;20960;-68
2022/01/11 10:17:20;;;;;;;18.92;13.22;;;;;;;14.35;41.50;100251.08;1692511;84;21143;-69
2022/01/11 10:20:09;;;;;;;18.55;11.88;;;;;;;14.41;41.30;100255.22;1690789;83;20984;-67
2022/01/11 10:22:56;;;;;;;20.60;13.35;;;;;;;14.62;40.85;100248.38;1675253;83;21069;-68
2022/01/11 10:25:24;;;;;;;22.07;14.18;;;;;;;14.50;40.77;100244.29;1674142;83;21620;-69
2022/01/11 10:28:03;;;;;;;19.92;13.48;;;;;;;14.32;40.85;100248.09;1658706;83;21153;-69
2022/01/11 10:30:34;;;;;;;20.57;12.95;;;;;;;14.50;40.51;100242.18;1686408;83;21759;-67
2022/01/11 10:33:06;;;;;;;19.70;13.60;;;;;;;14.65;40.43;100241.40;1689501;84;20983;-69
2022/01/11 10:35:42;;;;;;;;;;;;;;;14.89;40.10;100241.66;1684661;83;20967;-67
2022/01/11 10:38:06;;;;;;;18.80;12.23;;;;;;;15.11;39.75;100234.26;1690713;84;20145;-68
2022/01/11 10:40:36;;;;;;;20.40;13.28;;;;;;;15.02;39.69;100234.52;1682708;83;21305;-69
2022/01/11 10:43:07;;;;;;;17.67;12.43;;;;;;;14.88;39.88;100244.00;1690504;84;22373;-65
2022/01/11 10:45:36;;;;;;;22.82;13.90;;;;;;;15.01;39.48;100238.69;1688198;84;21030;-67
2022/01/11 10:48:09;;;;;;;18.20;11.70;;;;;;;14.97;39.31;100239.61;1687986;83;21008;-69
2022/01/11 10:50:39;;;;;;;19.52;13.45;;;;;;;14.95;39.10;100235.58;1681517;83;21136;-69
2022/01/11 10:53:20;;;;;;;19.20;12.45;;;;;;;14.82;38.96;100242.53;1687725;83;21102;-66
2022/01/11 10:55:55;;;;;;;19.57;12.95;;;;;;;15.02;38.88;100241.08;1689065;83;21768;-69
2022/01/11 10:58:24;;;;;;;20.60;13.55;;;;;;;14.95;38.65;100237.69;1685993;83;20970;-70
2022/01/11 11:00:55;;;;;;;21.30;13.28;;;;;;;14.88;38.70;100240.86;1686952;83;21961;-67
2022/01/11 11:03:46;;;;;;;20.52;12.20;;;;;;;14.79;38.68;100244.25;1686507;83;21044;-70
2022/01/11 11:06:13;;;;;;;17.12;11.78;;;;;;;14.86;38.53;100236.34;1657608;84;21494;-67
2022/01/11 11:08:47;;;;;;;16.77;12.23;;;;;;;14.82;38.46;100248.28;1655536;84;21112;-68
2022/01/11 11:11:23;;;;;;;18.65;12.33;;;;;;;14.67;38.58;100252.50;1652004;84;21543;-67
2022/01/11 11:14:08;;;;;;;18.50;12.47;;;;;;;14.73;38.43;100246.39;1664620;84;21990;-68
2022/01/11 11:16:41;;;;;;;19.42;12.37;;;;;;;14.63;38.69;100253.14;1662223;84;21028;-72
2022/01/11 11:19:09;;;;;;;18.02;11.33;;;;;;;14.53;38.66;100252.27;1637137;86;21570;-67
2022/01/11 11:21:38;;;;;;;19.77;12.05;;;;;;;13.21;40.54;100262.40;1628634;86;21090;-67
2022/01/11 11:24:14;;;;;;;18.95;12.03;;;;;;;13.01;40.96;100259.25;1656846;84;21877;-66